Accueil
METAR-TAF:

METAR-TAF

Aéroports :

Deauville, France

Aéroport de Deauville - Normandie

latitude: 49-21-55N, longitude: 000-09-16E, altitude: 146 m

Observation

Le bulletin a été fait il y a 19 minutes, à 11:00 UTC
Vent 11 kt de ouest/sud-ouest
Température 8°C
Humidité 71%
Pression 1019 hPa
Visibilité 10 km ou plus
pas de nuages en-dessous de 1500 mètres et pas de cumulonimbus.

METAR: LFRG 251100Z AUTO 24011KT CAVOK 08/03 Q1019 TEMPO 21015G25KT

Heure: 12:19 (11:19 UTC)

Prévision

Le bulletin a été fait il y a 3 heures et 19 minutes, à 08:00 UTC
Prévision valable du 25 à 09 UTC au 25 à 18 UTC
Vent 10 kt de sud/sud-ouest
Visibilité 10 km ou plus
Nuages épars à une hauteur de 3000 ft
Probabilité 30% :
Temporairement
du 25 à 11 UTC au 25 à 15 UTC
Vent 15 kt de sud/sud-ouest avec des rafales jusqu'à 25 kt

TAF: LFRG 250800Z 2509/2518 21010KT 9999 SCT030 PROB30 TEMPO 2511/2515 21015G25KT

Observations et prévisions météorologiques de plus de 4000 aéroports (messages METAR et TAF).

Les stations disponibles sont représentées par des disques jaunes et rouges sur la carte.

Passer la souris dessus pour voir le nom de la station.

Cliquer dessus pour voir les observations et prévisions météorologiques.

Pour changer de carte: cliquez sur les boutons verts avec une croix noire pour zoomer, sur le bouton vert avec un tiret pour effectuer un zoom arrière, ou sur les flèches vertes pour les cartes adjacentes.


METAR-TAF: